<?xml version="1.0" encoding="UTF-8" standalone="no" ?>
<gpx xmlns="http://www.topografix.com/GPX/1/1" xmlns:xsi="http://www.w3.org/2001/XMLSchema-instance" xsi:schemaLocation="http://www.topografix.com/GPX/1/1 http://www.topografix.com/GPX/1/1/gpx.xsd" version="1.1" creator="VisuGPX - https://www.visugpx.com">
  <metadata>
    <name>planches des filles - ballon d'alsace</name>
  </metadata>
  <trk>
    <name><![CDATA[Le sentier des mines à Giromagny]]></name>
    <extensions>
      <line xmlns="http://www.topografix.com/GPX/gpx_style/0/2">
        <color>FF0000</color>
        <width>4</width>
      </line>
    </extensions>
    <trkseg>
      <trkpt lat="47.74146" lon="6.82759">
        <ele>470</ele>
        <time>2018-06-02T14:56:08+02:00</time>
      </trkpt>
      <trkpt lat="47.74146" lon="6.82759">
        <ele>470</ele>
        <time>2018-06-02T14:56:08+02:00</time>
      </trkpt>
      <trkpt lat="47.74155" lon="6.82748">
        <ele>470</ele>
        <time>2018-06-02T14:56:21+02:00</time>
      </trkpt>
      <trkpt lat="47.74161" lon="6.82732">
        <ele>470</ele>
        <time>2018-06-02T14:56:56+02:00</time>
      </trkpt>
      <trkpt lat="47.7414" lon="6.82697">
        <ele>471</ele>
        <time>2018-06-02T14:57:15+02:00</time>
      </trkpt>
      <trkpt lat="47.74144" lon="6.82692">
        <ele>471</ele>
        <time>2018-06-02T14:57:30+02:00</time>
      </trkpt>
      <trkpt lat="47.74143" lon="6.82684">
        <ele>471</ele>
        <time>2018-06-02T14:57:44+02:00</time>
      </trkpt>
      <trkpt lat="47.74153" lon="6.82666">
        <ele>471</ele>
        <time>2018-06-02T14:57:57+02:00</time>
      </trkpt>
      <trkpt lat="47.74158" lon="6.82653">
        <ele>472</ele>
        <time>2018-06-02T14:58:07+02:00</time>
      </trkpt>
      <trkpt lat="47.7417" lon="6.82628">
        <ele>473</ele>
        <time>2018-06-02T14:58:30+02:00</time>
      </trkpt>
      <trkpt lat="47.74177" lon="6.82615">
        <ele>474</ele>
        <time>2018-06-02T14:58:40+02:00</time>
      </trkpt>
      <trkpt lat="47.74185" lon="6.82588">
        <ele>476</ele>
        <time>2018-06-02T14:58:59+02:00</time>
      </trkpt>
      <trkpt lat="47.74187" lon="6.82574">
        <ele>476</ele>
        <time>2018-06-02T14:59:10+02:00</time>
      </trkpt>
      <trkpt lat="47.74192" lon="6.82562">
        <ele>477</ele>
        <time>2018-06-02T14:59:22+02:00</time>
      </trkpt>
      <trkpt lat="47.74198" lon="6.82542">
        <ele>477</ele>
        <time>2018-06-02T14:59:37+02:00</time>
      </trkpt>
      <trkpt lat="47.7421" lon="6.82525">
        <ele>478</ele>
        <time>2018-06-02T14:59:51+02:00</time>
      </trkpt>
      <trkpt lat="47.74209" lon="6.82512">
        <ele>479</ele>
        <time>2018-06-02T15:01:10+02:00</time>
      </trkpt>
      <trkpt lat="47.7421" lon="6.8249">
        <ele>479</ele>
        <time>2018-06-02T15:03:37+02:00</time>
      </trkpt>
      <trkpt lat="47.74214" lon="6.82456">
        <ele>480</ele>
        <time>2018-06-02T15:04:02+02:00</time>
      </trkpt>
      <trkpt lat="47.74216" lon="6.82443">
        <ele>480</ele>
        <time>2018-06-02T15:04:14+02:00</time>
      </trkpt>
      <trkpt lat="47.74223" lon="6.82424">
        <ele>480</ele>
        <time>2018-06-02T15:04:26+02:00</time>
      </trkpt>
      <trkpt lat="47.74233" lon="6.82397">
        <ele>480</ele>
        <time>2018-06-02T15:04:50+02:00</time>
      </trkpt>
      <trkpt lat="47.74244" lon="6.82366">
        <ele>481</ele>
        <time>2018-06-02T15:05:14+02:00</time>
      </trkpt>
      <trkpt lat="47.74259" lon="6.82325">
        <ele>482</ele>
        <time>2018-06-02T15:05:46+02:00</time>
      </trkpt>
      <trkpt lat="47.74264" lon="6.8231">
        <ele>483</ele>
        <time>2018-06-02T15:06:02+02:00</time>
      </trkpt>
      <trkpt lat="47.7427" lon="6.82294">
        <ele>483</ele>
        <time>2018-06-02T15:06:13+02:00</time>
      </trkpt>
      <trkpt lat="47.74283" lon="6.82262">
        <ele>484</ele>
        <time>2018-06-02T15:06:41+02:00</time>
      </trkpt>
      <trkpt lat="47.74294" lon="6.82232">
        <ele>485</ele>
        <time>2018-06-02T15:08:38+02:00</time>
      </trkpt>
      <trkpt lat="47.74304" lon="6.82199">
        <ele>486</ele>
        <time>2018-06-02T15:08:59+02:00</time>
      </trkpt>
      <trkpt lat="47.74316" lon="6.8217">
        <ele>486</ele>
        <time>2018-06-02T15:09:21+02:00</time>
      </trkpt>
      <trkpt lat="47.7432" lon="6.82157">
        <ele>487</ele>
        <time>2018-06-02T15:09:31+02:00</time>
      </trkpt>
      <trkpt lat="47.74326" lon="6.82145">
        <ele>488</ele>
        <time>2018-06-02T15:09:40+02:00</time>
      </trkpt>
      <trkpt lat="47.74332" lon="6.82133">
        <ele>489</ele>
        <time>2018-06-02T15:09:49+02:00</time>
      </trkpt>
      <trkpt lat="47.74338" lon="6.82122">
        <ele>489</ele>
        <time>2018-06-02T15:09:58+02:00</time>
      </trkpt>
      <trkpt lat="47.74344" lon="6.82113">
        <ele>490</ele>
        <time>2021-11-20T10:45:16+01:00</time>
      </trkpt>
      <trkpt lat="47.74351" lon="6.8211">
        <ele>490</ele>
        <time>2018-06-02T15:10:35+02:00</time>
      </trkpt>
      <trkpt lat="47.7435" lon="6.82103">
        <ele>491</ele>
        <time>2018-06-02T15:10:45+02:00</time>
      </trkpt>
      <trkpt lat="47.7437" lon="6.82103">
        <ele>491</ele>
        <time>2018-06-02T15:11:36+02:00</time>
      </trkpt>
      <trkpt lat="47.74378" lon="6.82104">
        <ele>491</ele>
        <time>2018-06-02T15:11:46+02:00</time>
      </trkpt>
      <trkpt lat="47.74388" lon="6.82104">
        <ele>492</ele>
        <time>2018-06-02T15:12:05+02:00</time>
      </trkpt>
      <trkpt lat="47.74412" lon="6.82116">
        <ele>492</ele>
        <time>2018-06-02T15:12:24+02:00</time>
      </trkpt>
      <trkpt lat="47.74422" lon="6.8212">
        <ele>492</ele>
        <time>2018-06-02T15:12:33+02:00</time>
      </trkpt>
      <trkpt lat="47.74431" lon="6.82126">
        <ele>492</ele>
        <time>2018-06-02T15:12:42+02:00</time>
      </trkpt>
      <trkpt lat="47.7444" lon="6.82129">
        <ele>492</ele>
        <time>2018-06-02T15:12:51+02:00</time>
      </trkpt>
      <trkpt lat="47.7445" lon="6.82131">
        <ele>491</ele>
        <time>2018-06-02T15:13:00+02:00</time>
      </trkpt>
      <trkpt lat="47.74464" lon="6.82123">
        <ele>491</ele>
        <time>2018-06-02T15:13:09+02:00</time>
      </trkpt>
      <trkpt lat="47.7447" lon="6.82117">
        <ele>491</ele>
        <time>2018-06-02T15:13:17+02:00</time>
      </trkpt>
      <trkpt lat="47.7448" lon="6.82111">
        <ele>491</ele>
        <time>2018-06-02T15:13:26+02:00</time>
      </trkpt>
      <trkpt lat="47.74489" lon="6.82107">
        <ele>491</ele>
        <time>2018-06-02T15:13:36+02:00</time>
      </trkpt>
      <trkpt lat="47.74498" lon="6.82106">
        <ele>491</ele>
        <time>2018-06-02T15:13:52+02:00</time>
      </trkpt>
      <trkpt lat="47.74509" lon="6.82099">
        <ele>491</ele>
        <time>2018-06-02T15:14:12+02:00</time>
      </trkpt>
      <trkpt lat="47.7452" lon="6.82097">
        <ele>492</ele>
        <time>2018-06-02T15:14:22+02:00</time>
      </trkpt>
      <trkpt lat="47.7453" lon="6.82093">
        <ele>492</ele>
        <time>2018-06-02T15:14:31+02:00</time>
      </trkpt>
      <trkpt lat="47.74542" lon="6.82092">
        <ele>492</ele>
        <time>2018-06-02T15:14:40+02:00</time>
      </trkpt>
      <trkpt lat="47.74551" lon="6.82088">
        <ele>493</ele>
        <time>2018-06-02T15:14:48+02:00</time>
      </trkpt>
      <trkpt lat="47.7456" lon="6.82081">
        <ele>493</ele>
        <time>2018-06-02T15:14:56+02:00</time>
      </trkpt>
      <trkpt lat="47.74566" lon="6.82069">
        <ele>494</ele>
        <time>2018-06-02T15:15:05+02:00</time>
      </trkpt>
      <trkpt lat="47.74574" lon="6.82058">
        <ele>494</ele>
        <time>2018-06-02T15:15:14+02:00</time>
      </trkpt>
      <trkpt lat="47.74583" lon="6.82049">
        <ele>495</ele>
        <time>2018-06-02T15:15:25+02:00</time>
      </trkpt>
      <trkpt lat="47.74602" lon="6.82039">
        <ele>495</ele>
        <time>2018-06-02T15:15:47+02:00</time>
      </trkpt>
      <trkpt lat="47.74624" lon="6.82038">
        <ele>496</ele>
        <time>2018-06-02T15:16:07+02:00</time>
      </trkpt>
      <trkpt lat="47.74643" lon="6.82045">
        <ele>496</ele>
        <time>2018-06-02T15:16:25+02:00</time>
      </trkpt>
      <trkpt lat="47.7467" lon="6.82044">
        <ele>496</ele>
        <time>2018-06-02T15:16:42+02:00</time>
      </trkpt>
      <trkpt lat="47.74677" lon="6.82044">
        <ele>496</ele>
        <time>2018-06-02T15:16:52+02:00</time>
      </trkpt>
      <trkpt lat="47.74689" lon="6.82046">
        <ele>496</ele>
        <time>2018-06-02T15:17:17+02:00</time>
      </trkpt>
      <trkpt lat="47.74699" lon="6.82045">
        <ele>496</ele>
        <time>2018-06-02T15:17:26+02:00</time>
      </trkpt>
      <trkpt lat="47.74703" lon="6.82034">
        <ele>496</ele>
        <time>2021-11-20T10:47:56+01:00</time>
      </trkpt>
      <trkpt lat="47.74715" lon="6.82041">
        <ele>496</ele>
        <time>2018-06-02T15:19:02+02:00</time>
      </trkpt>
      <trkpt lat="47.74706" lon="6.8203">
        <ele>496</ele>
        <time>2021-11-20T10:48:06+01:00</time>
      </trkpt>
      <trkpt lat="47.74713" lon="6.82019">
        <ele>496</ele>
        <time>2018-06-02T15:19:42+02:00</time>
      </trkpt>
      <trkpt lat="47.74721" lon="6.82006">
        <ele>497</ele>
        <time>2018-06-02T15:19:52+02:00</time>
      </trkpt>
      <trkpt lat="47.74741" lon="6.81987">
        <ele>497</ele>
        <time>2018-06-02T15:20:08+02:00</time>
      </trkpt>
      <trkpt lat="47.74749" lon="6.81978">
        <ele>498</ele>
        <time>2018-06-02T15:20:15+02:00</time>
      </trkpt>
      <trkpt lat="47.74758" lon="6.81972">
        <ele>498</ele>
        <time>2018-06-02T15:20:24+02:00</time>
      </trkpt>
      <trkpt lat="47.74767" lon="6.81963">
        <ele>498</ele>
        <time>2018-06-02T15:20:33+02:00</time>
      </trkpt>
      <trkpt lat="47.74775" lon="6.81954">
        <ele>498</ele>
        <time>2018-06-02T15:20:43+02:00</time>
      </trkpt>
      <trkpt lat="47.74784" lon="6.81944">
        <ele>498</ele>
        <time>2018-06-02T15:20:52+02:00</time>
      </trkpt>
      <trkpt lat="47.74792" lon="6.81935">
        <ele>498</ele>
        <time>2018-06-02T15:21:01+02:00</time>
      </trkpt>
      <trkpt lat="47.74801" lon="6.81924">
        <ele>499</ele>
        <time>2018-06-02T15:21:12+02:00</time>
      </trkpt>
      <trkpt lat="47.7481" lon="6.81913">
        <ele>499</ele>
        <time>2018-06-02T15:21:21+02:00</time>
      </trkpt>
      <trkpt lat="47.74819" lon="6.81903">
        <ele>500</ele>
        <time>2018-06-02T15:21:31+02:00</time>
      </trkpt>
      <trkpt lat="47.74828" lon="6.81895">
        <ele>500</ele>
        <time>2018-06-02T15:21:40+02:00</time>
      </trkpt>
      <trkpt lat="47.74836" lon="6.81882">
        <ele>500</ele>
        <time>2018-06-02T15:21:50+02:00</time>
      </trkpt>
      <trkpt lat="47.74845" lon="6.81871">
        <ele>501</ele>
        <time>2018-06-02T15:22:00+02:00</time>
      </trkpt>
      <trkpt lat="47.74853" lon="6.8186">
        <ele>501</ele>
        <time>2018-06-02T15:22:09+02:00</time>
      </trkpt>
      <trkpt lat="47.74861" lon="6.8185">
        <ele>501</ele>
        <time>2018-06-02T15:22:18+02:00</time>
      </trkpt>
      <trkpt lat="47.74869" lon="6.81839">
        <ele>501</ele>
        <time>2018-06-02T15:22:27+02:00</time>
      </trkpt>
      <trkpt lat="47.74877" lon="6.81828">
        <ele>501</ele>
        <time>2018-06-02T15:22:37+02:00</time>
      </trkpt>
      <trkpt lat="47.74882" lon="6.81814">
        <ele>503</ele>
        <time>2018-06-02T15:22:47+02:00</time>
      </trkpt>
      <trkpt lat="47.74884" lon="6.81799">
        <ele>504</ele>
        <time>2018-06-02T15:23:02+02:00</time>
      </trkpt>
      <trkpt lat="47.7489" lon="6.81788">
        <ele>505</ele>
        <time>2018-06-02T15:23:20+02:00</time>
      </trkpt>
      <trkpt lat="47.74885" lon="6.81774">
        <ele>508</ele>
        <time>2018-06-02T15:23:33+02:00</time>
      </trkpt>
      <trkpt lat="47.74883" lon="6.81757">
        <ele>511</ele>
        <time>2018-06-02T15:23:48+02:00</time>
      </trkpt>
      <trkpt lat="47.74886" lon="6.81742">
        <ele>512</ele>
        <time>2018-06-02T15:24:00+02:00</time>
      </trkpt>
      <trkpt lat="47.74888" lon="6.81728">
        <ele>514</ele>
        <time>2018-06-02T15:24:12+02:00</time>
      </trkpt>
      <trkpt lat="47.74892" lon="6.81715">
        <ele>515</ele>
        <time>2018-06-02T15:24:24+02:00</time>
      </trkpt>
      <trkpt lat="47.74895" lon="6.817">
        <ele>517</ele>
        <time>2018-06-02T15:24:37+02:00</time>
      </trkpt>
      <trkpt lat="47.74896" lon="6.81686">
        <ele>519</ele>
        <time>2018-06-02T15:24:50+02:00</time>
      </trkpt>
      <trkpt lat="47.74899" lon="6.81671">
        <ele>520</ele>
        <time>2018-06-02T15:25:04+02:00</time>
      </trkpt>
      <trkpt lat="47.74903" lon="6.81657">
        <ele>521</ele>
        <time>2018-06-02T15:25:16+02:00</time>
      </trkpt>
      <trkpt lat="47.74903" lon="6.81643">
        <ele>523</ele>
        <time>2018-06-02T15:25:29+02:00</time>
      </trkpt>
      <trkpt lat="47.74906" lon="6.81629">
        <ele>524</ele>
        <time>2018-06-02T15:25:41+02:00</time>
      </trkpt>
      <trkpt lat="47.74909" lon="6.81614">
        <ele>526</ele>
        <time>2018-06-02T15:25:52+02:00</time>
      </trkpt>
      <trkpt lat="47.74911" lon="6.816">
        <ele>527</ele>
        <time>2018-06-02T15:26:02+02:00</time>
      </trkpt>
      <trkpt lat="47.74915" lon="6.81585">
        <ele>528</ele>
        <time>2018-06-02T15:26:16+02:00</time>
      </trkpt>
      <trkpt lat="47.74919" lon="6.81569">
        <ele>530</ele>
        <time>2018-06-02T15:26:30+02:00</time>
      </trkpt>
      <trkpt lat="47.74921" lon="6.81552">
        <ele>533</ele>
        <time>2018-06-02T15:26:43+02:00</time>
      </trkpt>
      <trkpt lat="47.74923" lon="6.81541">
        <ele>535</ele>
        <time>2018-06-02T15:27:05+02:00</time>
      </trkpt>
      <trkpt lat="47.74928" lon="6.8153">
        <ele>536</ele>
        <time>2018-06-02T15:27:18+02:00</time>
      </trkpt>
      <trkpt lat="47.74934" lon="6.81489">
        <ele>542</ele>
        <time>2018-06-02T15:27:42+02:00</time>
      </trkpt>
      <trkpt lat="47.74934" lon="6.81486">
        <ele>543</ele>
        <time>2018-06-02T15:28:05+02:00</time>
      </trkpt>
      <trkpt lat="47.74933" lon="6.81484">
        <ele>543</ele>
        <time>2018-06-02T15:28:15+02:00</time>
      </trkpt>
      <trkpt lat="47.74941" lon="6.81457">
        <ele>546</ele>
        <time>2018-06-02T15:28:27+02:00</time>
      </trkpt>
      <trkpt lat="47.74944" lon="6.81442">
        <ele>548</ele>
        <time>2018-06-02T15:28:40+02:00</time>
      </trkpt>
      <trkpt lat="47.74947" lon="6.81427">
        <ele>550</ele>
        <time>2018-06-02T15:28:50+02:00</time>
      </trkpt>
      <trkpt lat="47.7495" lon="6.81415">
        <ele>551</ele>
        <time>2018-06-02T15:29:00+02:00</time>
      </trkpt>
      <trkpt lat="47.74953" lon="6.814">
        <ele>552</ele>
        <time>2018-06-02T15:29:11+02:00</time>
      </trkpt>
      <trkpt lat="47.74958" lon="6.81386">
        <ele>553</ele>
        <time>2018-06-02T15:29:22+02:00</time>
      </trkpt>
      <trkpt lat="47.74961" lon="6.81371">
        <ele>554</ele>
        <time>2018-06-02T15:29:34+02:00</time>
      </trkpt>
      <trkpt lat="47.74969" lon="6.81357">
        <ele>554</ele>
        <time>2018-06-02T15:30:10+02:00</time>
      </trkpt>
      <trkpt lat="47.74979" lon="6.81353">
        <ele>553</ele>
        <time>2018-06-02T15:30:21+02:00</time>
      </trkpt>
      <trkpt lat="47.74992" lon="6.81351">
        <ele>551</ele>
        <time>2018-06-02T15:30:34+02:00</time>
      </trkpt>
      <trkpt lat="47.75004" lon="6.8135">
        <ele>550</ele>
        <time>2018-06-02T15:30:45+02:00</time>
      </trkpt>
      <trkpt lat="47.75016" lon="6.81356">
        <ele>551</ele>
        <time>2018-06-02T15:30:54+02:00</time>
      </trkpt>
      <trkpt lat="47.75028" lon="6.8136">
        <ele>552</ele>
        <time>2018-06-02T15:31:05+02:00</time>
      </trkpt>
      <trkpt lat="47.75039" lon="6.81362">
        <ele>554</ele>
        <time>2018-06-02T15:31:16+02:00</time>
      </trkpt>
      <trkpt lat="47.75052" lon="6.81369">
        <ele>555</ele>
        <time>2018-06-02T15:31:31+02:00</time>
      </trkpt>
      <trkpt lat="47.75064" lon="6.81378">
        <ele>555</ele>
        <time>2018-06-02T15:31:42+02:00</time>
      </trkpt>
      <trkpt lat="47.75081" lon="6.81385">
        <ele>557</ele>
        <time>2018-06-02T15:32:04+02:00</time>
      </trkpt>
      <trkpt lat="47.75092" lon="6.81387">
        <ele>558</ele>
        <time>2018-06-02T15:32:15+02:00</time>
      </trkpt>
      <trkpt lat="47.75106" lon="6.8139">
        <ele>559</ele>
        <time>2018-06-02T15:32:27+02:00</time>
      </trkpt>
      <trkpt lat="47.75127" lon="6.81391">
        <ele>562</ele>
        <time>2018-06-02T15:35:15+02:00</time>
      </trkpt>
      <trkpt lat="47.75164" lon="6.81378">
        <ele>568</ele>
        <time>2018-06-02T15:36:18+02:00</time>
      </trkpt>
      <trkpt lat="47.75177" lon="6.81365">
        <ele>571</ele>
        <time>2018-06-02T15:36:37+02:00</time>
      </trkpt>
      <trkpt lat="47.75197" lon="6.81345">
        <ele>573</ele>
        <time>2018-06-02T15:37:18+02:00</time>
      </trkpt>
      <trkpt lat="47.75229" lon="6.81316">
        <ele>578</ele>
        <time>2018-06-02T15:38:05+02:00</time>
      </trkpt>
      <trkpt lat="47.75245" lon="6.81298">
        <ele>581</ele>
        <time>2018-06-02T15:38:25+02:00</time>
      </trkpt>
      <trkpt lat="47.7526" lon="6.8128">
        <ele>584</ele>
        <time>2018-06-02T15:39:18+02:00</time>
      </trkpt>
      <trkpt lat="47.75275" lon="6.81261">
        <ele>586</ele>
        <time>2018-06-02T15:39:42+02:00</time>
      </trkpt>
      <trkpt lat="47.7529" lon="6.81243">
        <ele>588</ele>
        <time>2018-06-02T15:40:13+02:00</time>
      </trkpt>
      <trkpt lat="47.753" lon="6.8123">
        <ele>590</ele>
        <time>2018-06-02T15:40:29+02:00</time>
      </trkpt>
      <trkpt lat="47.75311" lon="6.81214">
        <ele>592</ele>
        <time>2018-06-02T15:40:46+02:00</time>
      </trkpt>
      <trkpt lat="47.75318" lon="6.81202">
        <ele>594</ele>
        <time>2018-06-02T15:41:14+02:00</time>
      </trkpt>
      <trkpt lat="47.75338" lon="6.81174">
        <ele>596</ele>
        <time>2018-06-02T15:42:02+02:00</time>
      </trkpt>
      <trkpt lat="47.75358" lon="6.81149">
        <ele>597</ele>
        <time>2018-06-02T15:42:53+02:00</time>
      </trkpt>
      <trkpt lat="47.75382" lon="6.81105">
        <ele>601</ele>
        <time>2018-06-02T15:43:50+02:00</time>
      </trkpt>
      <trkpt lat="47.75393" lon="6.81084">
        <ele>603</ele>
        <time>2018-06-02T15:44:06+02:00</time>
      </trkpt>
      <trkpt lat="47.75403" lon="6.81064">
        <ele>605</ele>
        <time>2018-06-02T15:44:21+02:00</time>
      </trkpt>
      <trkpt lat="47.75413" lon="6.81053">
        <ele>605</ele>
        <time>2018-06-02T15:44:34+02:00</time>
      </trkpt>
      <trkpt lat="47.75421" lon="6.81034">
        <ele>607</ele>
        <time>2018-06-02T15:44:48+02:00</time>
      </trkpt>
      <trkpt lat="47.75429" lon="6.81022">
        <ele>607</ele>
        <time>2018-06-02T15:44:59+02:00</time>
      </trkpt>
      <trkpt lat="47.75437" lon="6.81009">
        <ele>608</ele>
        <time>2018-06-02T15:45:15+02:00</time>
      </trkpt>
      <trkpt lat="47.75446" lon="6.80991">
        <ele>609</ele>
        <time>2018-06-02T15:45:42+02:00</time>
      </trkpt>
      <trkpt lat="47.75451" lon="6.80976">
        <ele>610</ele>
        <time>2018-06-02T15:45:54+02:00</time>
      </trkpt>
      <trkpt lat="47.7546" lon="6.80949">
        <ele>612</ele>
        <time>2018-06-02T15:46:16+02:00</time>
      </trkpt>
      <trkpt lat="47.75465" lon="6.80928">
        <ele>614</ele>
        <time>2018-06-02T15:46:27+02:00</time>
      </trkpt>
      <trkpt lat="47.75472" lon="6.80866">
        <ele>618</ele>
        <time>2018-06-02T15:47:11+02:00</time>
      </trkpt>
      <trkpt lat="47.75477" lon="6.80812">
        <ele>621</ele>
        <time>2018-06-02T15:47:52+02:00</time>
      </trkpt>
      <trkpt lat="47.75479" lon="6.80748">
        <ele>623</ele>
        <time>2018-06-02T15:48:51+02:00</time>
      </trkpt>
      <trkpt lat="47.75479" lon="6.80686">
        <ele>626</ele>
        <time>2018-06-02T15:49:34+02:00</time>
      </trkpt>
      <trkpt lat="47.75477" lon="6.80626">
        <ele>632</ele>
        <time>2018-06-02T15:50:40+02:00</time>
      </trkpt>
      <trkpt lat="47.75475" lon="6.80598">
        <ele>635</ele>
        <time>2018-06-02T15:50:53+02:00</time>
      </trkpt>
      <trkpt lat="47.7546" lon="6.80578">
        <ele>640</ele>
        <time>2018-06-02T15:51:57+02:00</time>
      </trkpt>
      <trkpt lat="47.75443" lon="6.80558">
        <ele>645</ele>
        <time>2021-11-20T10:56:01+01:00</time>
      </trkpt>
      <trkpt lat="47.75431" lon="6.80509">
        <ele>652</ele>
        <time>2018-06-02T15:52:29+02:00</time>
      </trkpt>
      <trkpt lat="47.75429" lon="6.8046">
        <ele>655</ele>
        <time>2018-06-02T15:57:44+02:00</time>
      </trkpt>
      <trkpt lat="47.75413" lon="6.8032">
        <ele>668</ele>
        <time>2018-06-02T16:00:13+02:00</time>
      </trkpt>
      <trkpt lat="47.75399" lon="6.80212">
        <ele>677</ele>
        <time>2018-06-02T16:02:50+02:00</time>
      </trkpt>
      <trkpt lat="47.75377" lon="6.80204">
        <ele>681</ele>
        <time>2021-11-20T10:56:26+01:00</time>
      </trkpt>
      <trkpt lat="47.75369" lon="6.80178">
        <ele>685</ele>
        <time>2018-06-02T16:07:05+02:00</time>
      </trkpt>
      <trkpt lat="47.75361" lon="6.80168">
        <ele>687</ele>
        <time>2021-11-20T10:56:36+01:00</time>
      </trkpt>
      <trkpt lat="47.75348" lon="6.80175">
        <ele>688</ele>
        <time>2018-06-02T16:07:27+02:00</time>
      </trkpt>
      <trkpt lat="47.75344" lon="6.80206">
        <ele>687</ele>
        <time>2018-06-02T16:08:00+02:00</time>
      </trkpt>
      <trkpt lat="47.75342" lon="6.80229">
        <ele>686</ele>
        <time>2018-06-02T16:08:19+02:00</time>
      </trkpt>
      <trkpt lat="47.75339" lon="6.80256">
        <ele>685</ele>
        <time>2018-06-02T16:08:39+02:00</time>
      </trkpt>
      <trkpt lat="47.75332" lon="6.80278">
        <ele>686</ele>
        <time>2018-06-02T16:08:52+02:00</time>
      </trkpt>
      <trkpt lat="47.75321" lon="6.80311">
        <ele>691</ele>
        <time>2018-06-02T16:09:14+02:00</time>
      </trkpt>
      <trkpt lat="47.75306" lon="6.8035">
        <ele>695</ele>
        <time>2018-06-02T16:09:40+02:00</time>
      </trkpt>
      <trkpt lat="47.75289" lon="6.80396">
        <ele>698</ele>
        <time>2018-06-02T16:10:56+02:00</time>
      </trkpt>
      <trkpt lat="47.75279" lon="6.80424">
        <ele>698</ele>
        <time>2018-06-02T16:11:19+02:00</time>
      </trkpt>
      <trkpt lat="47.75264" lon="6.8047">
        <ele>700</ele>
        <time>2018-06-02T16:18:48+02:00</time>
      </trkpt>
      <trkpt lat="47.75255" lon="6.8049">
        <ele>702</ele>
        <time>2018-06-02T16:19:14+02:00</time>
      </trkpt>
      <trkpt lat="47.75244" lon="6.80514">
        <ele>703</ele>
        <time>2018-06-02T16:19:35+02:00</time>
      </trkpt>
      <trkpt lat="47.75218" lon="6.80574">
        <ele>701</ele>
        <time>2018-06-02T16:20:18+02:00</time>
      </trkpt>
      <trkpt lat="47.75201" lon="6.80622">
        <ele>699</ele>
        <time>2018-06-02T16:20:46+02:00</time>
      </trkpt>
      <trkpt lat="47.75189" lon="6.80646">
        <ele>699</ele>
        <time>2018-06-02T16:20:57+02:00</time>
      </trkpt>
      <trkpt lat="47.75185" lon="6.80668">
        <ele>697</ele>
        <time>2018-06-02T16:21:48+02:00</time>
      </trkpt>
      <trkpt lat="47.75179" lon="6.80695">
        <ele>697</ele>
        <time>2018-06-02T16:22:01+02:00</time>
      </trkpt>
      <trkpt lat="47.75172" lon="6.80724">
        <ele>697</ele>
        <time>2018-06-02T16:22:24+02:00</time>
      </trkpt>
      <trkpt lat="47.75159" lon="6.80733">
        <ele>695</ele>
        <time>2018-06-02T16:23:15+02:00</time>
      </trkpt>
      <trkpt lat="47.7513" lon="6.80693">
        <ele>692</ele>
        <time>2018-06-02T16:23:37+02:00</time>
      </trkpt>
      <trkpt lat="47.75112" lon="6.80658">
        <ele>693</ele>
        <time>2018-06-02T16:24:09+02:00</time>
      </trkpt>
      <trkpt lat="47.75094" lon="6.80627">
        <ele>698</ele>
        <time>2018-06-02T16:24:31+02:00</time>
      </trkpt>
      <trkpt lat="47.75082" lon="6.80609">
        <ele>701</ele>
        <time>2018-06-02T16:24:43+02:00</time>
      </trkpt>
      <trkpt lat="47.75068" lon="6.80596">
        <ele>700</ele>
        <time>2018-06-02T16:24:55+02:00</time>
      </trkpt>
      <trkpt lat="47.75059" lon="6.80587">
        <ele>700</ele>
        <time>2018-06-02T16:25:03+02:00</time>
      </trkpt>
      <trkpt lat="47.75044" lon="6.80572">
        <ele>700</ele>
        <time>2018-06-02T16:25:16+02:00</time>
      </trkpt>
      <trkpt lat="47.75033" lon="6.80562">
        <ele>699</ele>
        <time>2018-06-02T16:25:26+02:00</time>
      </trkpt>
      <trkpt lat="47.75022" lon="6.80554">
        <ele>698</ele>
        <time>2018-06-02T16:25:35+02:00</time>
      </trkpt>
      <trkpt lat="47.75012" lon="6.80547">
        <ele>697</ele>
        <time>2018-06-02T16:25:44+02:00</time>
      </trkpt>
      <trkpt lat="47.75002" lon="6.8054">
        <ele>696</ele>
        <time>2018-06-02T16:25:55+02:00</time>
      </trkpt>
      <trkpt lat="47.74951" lon="6.80477">
        <ele>701</ele>
        <time>2018-06-02T16:26:40+02:00</time>
      </trkpt>
      <trkpt lat="47.74959" lon="6.80449">
        <ele>710</ele>
        <time>2018-06-02T16:27:58+02:00</time>
      </trkpt>
      <trkpt lat="47.74947" lon="6.80474">
        <ele>701</ele>
        <time>2018-06-02T16:38:28+02:00</time>
      </trkpt>
      <trkpt lat="47.74922" lon="6.80475">
        <ele>696</ele>
        <time>2018-06-02T16:38:53+02:00</time>
      </trkpt>
      <trkpt lat="47.74911" lon="6.80476">
        <ele>693</ele>
        <time>2018-06-02T16:39:06+02:00</time>
      </trkpt>
      <trkpt lat="47.74901" lon="6.80479">
        <ele>691</ele>
        <time>2018-06-02T16:39:19+02:00</time>
      </trkpt>
      <trkpt lat="47.74882" lon="6.80486">
        <ele>686</ele>
        <time>2018-06-02T16:39:36+02:00</time>
      </trkpt>
      <trkpt lat="47.74867" lon="6.8048">
        <ele>684</ele>
        <time>2018-06-02T16:39:51+02:00</time>
      </trkpt>
      <trkpt lat="47.74851" lon="6.80474">
        <ele>682</ele>
        <time>2018-06-02T16:43:14+02:00</time>
      </trkpt>
      <trkpt lat="47.74839" lon="6.8044">
        <ele>684</ele>
        <time>2018-06-02T16:44:23+02:00</time>
      </trkpt>
      <trkpt lat="47.74805" lon="6.80366">
        <ele>683</ele>
        <time>2021-11-20T11:00:01+01:00</time>
      </trkpt>
      <trkpt lat="47.74793" lon="6.80298">
        <ele>691</ele>
        <time>2018-06-02T16:45:51+02:00</time>
      </trkpt>
      <trkpt lat="47.74784" lon="6.80287">
        <ele>689</ele>
        <time>2018-06-02T16:46:21+02:00</time>
      </trkpt>
      <trkpt lat="47.74763" lon="6.80276">
        <ele>684</ele>
        <time>2021-11-20T11:00:16+01:00</time>
      </trkpt>
      <trkpt lat="47.74723" lon="6.80236">
        <ele>674</ele>
        <time>2018-06-02T16:48:09+02:00</time>
      </trkpt>
      <trkpt lat="47.74734" lon="6.80262">
        <ele>675</ele>
        <time>2018-06-02T16:48:46+02:00</time>
      </trkpt>
      <trkpt lat="47.74752" lon="6.80297">
        <ele>676</ele>
        <time>2018-06-02T16:49:12+02:00</time>
      </trkpt>
      <trkpt lat="47.74763" lon="6.80309">
        <ele>678</ele>
        <time>2018-06-02T16:49:23+02:00</time>
      </trkpt>
      <trkpt lat="47.74765" lon="6.80323">
        <ele>676</ele>
        <time>2018-06-02T16:49:33+02:00</time>
      </trkpt>
      <trkpt lat="47.74761" lon="6.80343">
        <ele>672</ele>
        <time>2018-06-02T16:49:43+02:00</time>
      </trkpt>
      <trkpt lat="47.74762" lon="6.80362">
        <ele>670</ele>
        <time>2018-06-02T16:49:53+02:00</time>
      </trkpt>
      <trkpt lat="47.74764" lon="6.80383">
        <ele>668</ele>
        <time>2018-06-02T16:50:14+02:00</time>
      </trkpt>
      <trkpt lat="47.74753" lon="6.804">
        <ele>663</ele>
        <time>2018-06-02T16:51:01+02:00</time>
      </trkpt>
      <trkpt lat="47.74727" lon="6.80378">
        <ele>656</ele>
        <time>2018-06-02T17:00:19+02:00</time>
      </trkpt>
      <trkpt lat="47.74748" lon="6.80398">
        <ele>661</ele>
        <time>2021-11-20T11:01:11+01:00</time>
      </trkpt>
      <trkpt lat="47.74767" lon="6.80407">
        <ele>666</ele>
        <time>2021-11-20T11:01:16+01:00</time>
      </trkpt>
      <trkpt lat="47.74772" lon="6.80455">
        <ele>664</ele>
        <time>2018-06-02T17:04:59+02:00</time>
      </trkpt>
      <trkpt lat="47.74778" lon="6.80479">
        <ele>663</ele>
        <time>2018-06-02T17:05:26+02:00</time>
      </trkpt>
      <trkpt lat="47.74781" lon="6.80501">
        <ele>662</ele>
        <time>2018-06-02T17:05:39+02:00</time>
      </trkpt>
      <trkpt lat="47.74785" lon="6.80544">
        <ele>660</ele>
        <time>2018-06-02T17:06:13+02:00</time>
      </trkpt>
      <trkpt lat="47.74784" lon="6.80597">
        <ele>657</ele>
        <time>2018-06-02T17:06:50+02:00</time>
      </trkpt>
      <trkpt lat="47.7478" lon="6.80639">
        <ele>655</ele>
        <time>2018-06-02T17:07:30+02:00</time>
      </trkpt>
      <trkpt lat="47.74779" lon="6.80658">
        <ele>655</ele>
        <time>2018-06-02T17:07:44+02:00</time>
      </trkpt>
      <trkpt lat="47.74779" lon="6.80675">
        <ele>654</ele>
        <time>2018-06-02T17:07:55+02:00</time>
      </trkpt>
      <trkpt lat="47.74778" lon="6.80693">
        <ele>653</ele>
        <time>2018-06-02T17:08:06+02:00</time>
      </trkpt>
      <trkpt lat="47.74777" lon="6.80712">
        <ele>652</ele>
        <time>2018-06-02T17:08:18+02:00</time>
      </trkpt>
      <trkpt lat="47.74775" lon="6.80729">
        <ele>651</ele>
        <time>2018-06-02T17:08:29+02:00</time>
      </trkpt>
      <trkpt lat="47.74774" lon="6.80747">
        <ele>650</ele>
        <time>2018-06-02T17:08:40+02:00</time>
      </trkpt>
      <trkpt lat="47.74769" lon="6.80767">
        <ele>649</ele>
        <time>2018-06-02T17:08:53+02:00</time>
      </trkpt>
      <trkpt lat="47.74765" lon="6.80782">
        <ele>648</ele>
        <time>2018-06-02T17:09:02+02:00</time>
      </trkpt>
      <trkpt lat="47.74763" lon="6.808">
        <ele>647</ele>
        <time>2018-06-02T17:09:13+02:00</time>
      </trkpt>
      <trkpt lat="47.74762" lon="6.80821">
        <ele>646</ele>
        <time>2018-06-02T17:09:24+02:00</time>
      </trkpt>
      <trkpt lat="47.74761" lon="6.80849">
        <ele>645</ele>
        <time>2018-06-02T17:09:36+02:00</time>
      </trkpt>
      <trkpt lat="47.74756" lon="6.80875">
        <ele>644</ele>
        <time>2018-06-02T17:10:46+02:00</time>
      </trkpt>
      <trkpt lat="47.7477" lon="6.80923">
        <ele>642</ele>
        <time>2018-06-02T17:11:38+02:00</time>
      </trkpt>
      <trkpt lat="47.74759" lon="6.80969">
        <ele>641</ele>
        <time>2018-06-02T17:12:17+02:00</time>
      </trkpt>
      <trkpt lat="47.74753" lon="6.80998">
        <ele>641</ele>
        <time>2018-06-02T17:12:35+02:00</time>
      </trkpt>
      <trkpt lat="47.74747" lon="6.81021">
        <ele>640</ele>
        <time>2018-06-02T17:12:50+02:00</time>
      </trkpt>
      <trkpt lat="47.74736" lon="6.81064">
        <ele>638</ele>
        <time>2018-06-02T17:13:57+02:00</time>
      </trkpt>
      <trkpt lat="47.74728" lon="6.81095">
        <ele>636</ele>
        <time>2018-06-02T17:14:09+02:00</time>
      </trkpt>
      <trkpt lat="47.74703" lon="6.81138">
        <ele>632</ele>
        <time>2021-11-20T11:03:21+01:00</time>
      </trkpt>
      <trkpt lat="47.74679" lon="6.81161">
        <ele>631</ele>
        <time>2018-06-02T17:15:43+02:00</time>
      </trkpt>
      <trkpt lat="47.74677" lon="6.81197">
        <ele>628</ele>
        <time>2018-06-02T17:16:09+02:00</time>
      </trkpt>
      <trkpt lat="47.74679" lon="6.81242">
        <ele>623</ele>
        <time>2021-11-20T11:03:36+01:00</time>
      </trkpt>
      <trkpt lat="47.74696" lon="6.81295">
        <ele>617</ele>
        <time>2021-11-20T11:03:41+01:00</time>
      </trkpt>
      <trkpt lat="47.74721" lon="6.81313">
        <ele>613</ele>
        <time>2018-06-02T17:19:23+02:00</time>
      </trkpt>
      <trkpt lat="47.74719" lon="6.8138">
        <ele>609</ele>
        <time>2018-06-02T17:19:52+02:00</time>
      </trkpt>
      <trkpt lat="47.74716" lon="6.81427">
        <ele>607</ele>
        <time>2018-06-02T17:20:18+02:00</time>
      </trkpt>
      <trkpt lat="47.74751" lon="6.81408">
        <ele>605</ele>
        <time>2021-11-20T11:04:01+01:00</time>
      </trkpt>
      <trkpt lat="47.74781" lon="6.81384">
        <ele>597</ele>
        <time>2021-11-20T11:04:06+01:00</time>
      </trkpt>
      <trkpt lat="47.74845" lon="6.81341">
        <ele>583</ele>
        <time>2021-11-20T11:04:11+01:00</time>
      </trkpt>
      <trkpt lat="47.74864" lon="6.81342">
        <ele>578</ele>
        <time>2018-06-02T17:25:28+02:00</time>
      </trkpt>
      <trkpt lat="47.74885" lon="6.81347">
        <ele>572</ele>
        <time>2021-11-20T11:04:21+01:00</time>
      </trkpt>
      <trkpt lat="47.74913" lon="6.81367">
        <ele>563</ele>
        <time>2021-11-20T11:04:26+01:00</time>
      </trkpt>
      <trkpt lat="47.74923" lon="6.81398">
        <ele>557</ele>
        <time>2018-06-02T17:28:45+02:00</time>
      </trkpt>
      <trkpt lat="47.74939" lon="6.81385">
        <ele>556</ele>
        <time>2018-06-02T17:29:08+02:00</time>
      </trkpt>
      <trkpt lat="47.74954" lon="6.81368">
        <ele>556</ele>
        <time>2018-06-02T17:29:28+02:00</time>
      </trkpt>
      <trkpt lat="47.74957" lon="6.81378">
        <ele>554</ele>
        <time>2018-06-02T17:30:51+02:00</time>
      </trkpt>
      <trkpt lat="47.74949" lon="6.81395">
        <ele>553</ele>
        <time>2018-06-02T17:31:15+02:00</time>
      </trkpt>
      <trkpt lat="47.74947" lon="6.81409">
        <ele>552</ele>
        <time>2018-06-02T17:31:23+02:00</time>
      </trkpt>
      <trkpt lat="47.74944" lon="6.81422">
        <ele>551</ele>
        <time>2018-06-02T17:31:32+02:00</time>
      </trkpt>
      <trkpt lat="47.7494" lon="6.81435">
        <ele>550</ele>
        <time>2018-06-02T17:31:41+02:00</time>
      </trkpt>
      <trkpt lat="47.74939" lon="6.8145">
        <ele>548</ele>
        <time>2018-06-02T17:31:50+02:00</time>
      </trkpt>
      <trkpt lat="47.74938" lon="6.81464">
        <ele>546</ele>
        <time>2018-06-02T17:31:58+02:00</time>
      </trkpt>
      <trkpt lat="47.74936" lon="6.81479">
        <ele>544</ele>
        <time>2018-06-02T17:32:06+02:00</time>
      </trkpt>
      <trkpt lat="47.74933" lon="6.81493">
        <ele>542</ele>
        <time>2018-06-02T17:32:14+02:00</time>
      </trkpt>
      <trkpt lat="47.7493" lon="6.81507">
        <ele>540</ele>
        <time>2018-06-02T17:32:22+02:00</time>
      </trkpt>
      <trkpt lat="47.74928" lon="6.81521">
        <ele>538</ele>
        <time>2018-06-02T17:32:30+02:00</time>
      </trkpt>
      <trkpt lat="47.74925" lon="6.81534">
        <ele>536</ele>
        <time>2018-06-02T17:32:38+02:00</time>
      </trkpt>
      <trkpt lat="47.74922" lon="6.81548">
        <ele>533</ele>
        <time>2018-06-02T17:32:47+02:00</time>
      </trkpt>
      <trkpt lat="47.74918" lon="6.81563">
        <ele>532</ele>
        <time>2018-06-02T17:32:56+02:00</time>
      </trkpt>
      <trkpt lat="47.74915" lon="6.81576">
        <ele>530</ele>
        <time>2018-06-02T17:33:04+02:00</time>
      </trkpt>
      <trkpt lat="47.74912" lon="6.81592">
        <ele>528</ele>
        <time>2018-06-02T17:33:13+02:00</time>
      </trkpt>
      <trkpt lat="47.74909" lon="6.81607">
        <ele>527</ele>
        <time>2018-06-02T17:33:22+02:00</time>
      </trkpt>
      <trkpt lat="47.74909" lon="6.81619">
        <ele>525</ele>
        <time>2018-06-02T17:34:08+02:00</time>
      </trkpt>
      <trkpt lat="47.74905" lon="6.81633">
        <ele>524</ele>
        <time>2018-06-02T17:34:19+02:00</time>
      </trkpt>
      <trkpt lat="47.74904" lon="6.81646">
        <ele>522</ele>
        <time>2018-06-02T17:34:38+02:00</time>
      </trkpt>
      <trkpt lat="47.74902" lon="6.81663">
        <ele>520</ele>
        <time>2018-06-02T17:34:47+02:00</time>
      </trkpt>
      <trkpt lat="47.74897" lon="6.81676">
        <ele>520</ele>
        <time>2018-06-02T17:34:55+02:00</time>
      </trkpt>
      <trkpt lat="47.74894" lon="6.8169">
        <ele>519</ele>
        <time>2018-06-02T17:35:03+02:00</time>
      </trkpt>
      <trkpt lat="47.74892" lon="6.81703">
        <ele>517</ele>
        <time>2018-06-02T17:35:12+02:00</time>
      </trkpt>
      <trkpt lat="47.74889" lon="6.81719">
        <ele>516</ele>
        <time>2018-06-02T17:35:21+02:00</time>
      </trkpt>
      <trkpt lat="47.74887" lon="6.81733">
        <ele>514</ele>
        <time>2018-06-02T17:35:28+02:00</time>
      </trkpt>
      <trkpt lat="47.74884" lon="6.81746">
        <ele>512</ele>
        <time>2018-06-02T17:35:37+02:00</time>
      </trkpt>
      <trkpt lat="47.74882" lon="6.8176">
        <ele>510</ele>
        <time>2018-06-02T17:35:47+02:00</time>
      </trkpt>
      <trkpt lat="47.74882" lon="6.81773">
        <ele>508</ele>
        <time>2018-06-02T17:35:56+02:00</time>
      </trkpt>
      <trkpt lat="47.74889" lon="6.81786">
        <ele>505</ele>
        <time>2018-06-02T17:36:04+02:00</time>
      </trkpt>
      <trkpt lat="47.74882" lon="6.81801">
        <ele>504</ele>
        <time>2018-06-02T17:36:12+02:00</time>
      </trkpt>
      <trkpt lat="47.74882" lon="6.81816">
        <ele>502</ele>
        <time>2018-06-02T17:36:21+02:00</time>
      </trkpt>
      <trkpt lat="47.74881" lon="6.81831">
        <ele>500</ele>
        <time>2018-06-02T17:36:30+02:00</time>
      </trkpt>
      <trkpt lat="47.74888" lon="6.81843">
        <ele>499</ele>
        <time>2018-06-02T17:36:40+02:00</time>
      </trkpt>
      <trkpt lat="47.74895" lon="6.81855">
        <ele>498</ele>
        <time>2018-06-02T17:36:48+02:00</time>
      </trkpt>
      <trkpt lat="47.74902" lon="6.81868">
        <ele>498</ele>
        <time>2018-06-02T17:36:58+02:00</time>
      </trkpt>
      <trkpt lat="47.74907" lon="6.81884">
        <ele>497</ele>
        <time>2018-06-02T17:37:07+02:00</time>
      </trkpt>
      <trkpt lat="47.74912" lon="6.81901">
        <ele>497</ele>
        <time>2018-06-02T17:37:17+02:00</time>
      </trkpt>
      <trkpt lat="47.74918" lon="6.81915">
        <ele>497</ele>
        <time>2018-06-02T17:37:27+02:00</time>
      </trkpt>
      <trkpt lat="47.74916" lon="6.81933">
        <ele>497</ele>
        <time>2018-06-02T17:37:37+02:00</time>
      </trkpt>
      <trkpt lat="47.7491" lon="6.81945">
        <ele>496</ele>
        <time>2018-06-02T17:37:45+02:00</time>
      </trkpt>
      <trkpt lat="47.74905" lon="6.81957">
        <ele>496</ele>
        <time>2018-06-02T17:37:53+02:00</time>
      </trkpt>
      <trkpt lat="47.74906" lon="6.81972">
        <ele>496</ele>
        <time>2018-06-02T17:38:02+02:00</time>
      </trkpt>
      <trkpt lat="47.74909" lon="6.81987">
        <ele>495</ele>
        <time>2018-06-02T17:38:13+02:00</time>
      </trkpt>
      <trkpt lat="47.74912" lon="6.81986">
        <ele>495</ele>
        <time>2021-11-20T11:08:26+01:00</time>
      </trkpt>
      <trkpt lat="47.7492" lon="6.82008">
        <ele>495</ele>
        <time>2018-06-02T17:40:08+02:00</time>
      </trkpt>
      <trkpt lat="47.74927" lon="6.82034">
        <ele>493</ele>
        <time>2018-06-02T17:40:26+02:00</time>
      </trkpt>
      <trkpt lat="47.74933" lon="6.8205">
        <ele>492</ele>
        <time>2018-06-02T17:41:09+02:00</time>
      </trkpt>
      <trkpt lat="47.74937" lon="6.82061">
        <ele>492</ele>
        <time>2018-06-02T17:41:19+02:00</time>
      </trkpt>
      <trkpt lat="47.74943" lon="6.82074">
        <ele>491</ele>
        <time>2018-06-02T17:41:27+02:00</time>
      </trkpt>
      <trkpt lat="47.74949" lon="6.82087">
        <ele>491</ele>
        <time>2018-06-02T17:41:35+02:00</time>
      </trkpt>
      <trkpt lat="47.7495" lon="6.82103">
        <ele>491</ele>
        <time>2018-06-02T17:41:45+02:00</time>
      </trkpt>
      <trkpt lat="47.74952" lon="6.82118">
        <ele>492</ele>
        <time>2018-06-02T17:41:55+02:00</time>
      </trkpt>
      <trkpt lat="47.74949" lon="6.82134">
        <ele>492</ele>
        <time>2018-06-02T17:42:03+02:00</time>
      </trkpt>
      <trkpt lat="47.74946" lon="6.82162">
        <ele>492</ele>
        <time>2018-06-02T17:42:13+02:00</time>
      </trkpt>
      <trkpt lat="47.74937" lon="6.82161">
        <ele>492</ele>
        <time>2018-06-02T17:42:25+02:00</time>
      </trkpt>
      <trkpt lat="47.74927" lon="6.82171">
        <ele>491</ele>
        <time>2018-06-02T17:43:02+02:00</time>
      </trkpt>
      <trkpt lat="47.74919" lon="6.8218">
        <ele>491</ele>
        <time>2018-06-02T17:43:09+02:00</time>
      </trkpt>
      <trkpt lat="47.74914" lon="6.82191">
        <ele>492</ele>
        <time>2018-06-02T17:43:15+02:00</time>
      </trkpt>
      <trkpt lat="47.74907" lon="6.82202">
        <ele>492</ele>
        <time>2018-06-02T17:43:25+02:00</time>
      </trkpt>
      <trkpt lat="47.74902" lon="6.82217">
        <ele>492</ele>
        <time>2018-06-02T17:43:33+02:00</time>
      </trkpt>
      <trkpt lat="47.74897" lon="6.8223">
        <ele>492</ele>
        <time>2018-06-02T17:43:40+02:00</time>
      </trkpt>
      <trkpt lat="47.74891" lon="6.82239">
        <ele>493</ele>
        <time>2018-06-02T17:43:48+02:00</time>
      </trkpt>
      <trkpt lat="47.74886" lon="6.82253">
        <ele>493</ele>
        <time>2018-06-02T17:43:56+02:00</time>
      </trkpt>
      <trkpt lat="47.74881" lon="6.82266">
        <ele>493</ele>
        <time>2018-06-02T17:44:03+02:00</time>
      </trkpt>
      <trkpt lat="47.74877" lon="6.82279">
        <ele>493</ele>
        <time>2018-06-02T17:44:12+02:00</time>
      </trkpt>
      <trkpt lat="47.74872" lon="6.82292">
        <ele>493</ele>
        <time>2018-06-02T17:44:19+02:00</time>
      </trkpt>
      <trkpt lat="47.74868" lon="6.82305">
        <ele>493</ele>
        <time>2018-06-02T17:44:26+02:00</time>
      </trkpt>
      <trkpt lat="47.74864" lon="6.82317">
        <ele>492</ele>
        <time>2018-06-02T17:44:33+02:00</time>
      </trkpt>
      <trkpt lat="47.74861" lon="6.82333">
        <ele>492</ele>
        <time>2018-06-02T17:44:42+02:00</time>
      </trkpt>
      <trkpt lat="47.74857" lon="6.82348">
        <ele>492</ele>
        <time>2018-06-02T17:44:51+02:00</time>
      </trkpt>
      <trkpt lat="47.74853" lon="6.82364">
        <ele>492</ele>
        <time>2018-06-02T17:45:00+02:00</time>
      </trkpt>
      <trkpt lat="47.74847" lon="6.82378">
        <ele>492</ele>
        <time>2018-06-02T17:45:07+02:00</time>
      </trkpt>
      <trkpt lat="47.74842" lon="6.82389">
        <ele>491</ele>
        <time>2018-06-02T17:45:15+02:00</time>
      </trkpt>
      <trkpt lat="47.74836" lon="6.82401">
        <ele>490</ele>
        <time>2018-06-02T17:45:24+02:00</time>
      </trkpt>
      <trkpt lat="47.74831" lon="6.82415">
        <ele>490</ele>
        <time>2018-06-02T17:45:34+02:00</time>
      </trkpt>
      <trkpt lat="47.74825" lon="6.82427">
        <ele>491</ele>
        <time>2018-06-02T17:45:44+02:00</time>
      </trkpt>
      <trkpt lat="47.74819" lon="6.82439">
        <ele>491</ele>
        <time>2018-06-02T17:45:54+02:00</time>
      </trkpt>
      <trkpt lat="47.74813" lon="6.82453">
        <ele>492</ele>
        <time>2018-06-02T17:46:05+02:00</time>
      </trkpt>
      <trkpt lat="47.74809" lon="6.82467">
        <ele>493</ele>
        <time>2018-06-02T17:46:16+02:00</time>
      </trkpt>
      <trkpt lat="47.74804" lon="6.82485">
        <ele>494</ele>
        <time>2018-06-02T17:46:30+02:00</time>
      </trkpt>
      <trkpt lat="47.74796" lon="6.8251">
        <ele>495</ele>
        <time>2018-06-02T17:47:05+02:00</time>
      </trkpt>
      <trkpt lat="47.74783" lon="6.82519">
        <ele>495</ele>
        <time>2018-06-02T17:47:14+02:00</time>
      </trkpt>
      <trkpt lat="47.74774" lon="6.82528">
        <ele>495</ele>
        <time>2018-06-02T17:47:24+02:00</time>
      </trkpt>
      <trkpt lat="47.74766" lon="6.82534">
        <ele>494</ele>
        <time>2018-06-02T17:47:30+02:00</time>
      </trkpt>
      <trkpt lat="47.74758" lon="6.8254">
        <ele>494</ele>
        <time>2018-06-02T17:47:38+02:00</time>
      </trkpt>
      <trkpt lat="47.74751" lon="6.82548">
        <ele>493</ele>
        <time>2018-06-02T17:47:45+02:00</time>
      </trkpt>
      <trkpt lat="47.7474" lon="6.82559">
        <ele>493</ele>
        <time>2018-06-02T17:47:54+02:00</time>
      </trkpt>
      <trkpt lat="47.74724" lon="6.82591">
        <ele>493</ele>
        <time>2018-06-02T17:48:17+02:00</time>
      </trkpt>
      <trkpt lat="47.74714" lon="6.82603">
        <ele>493</ele>
        <time>2018-06-02T17:48:28+02:00</time>
      </trkpt>
      <trkpt lat="47.74709" lon="6.82616">
        <ele>493</ele>
        <time>2018-06-02T17:48:36+02:00</time>
      </trkpt>
      <trkpt lat="47.74704" lon="6.82631">
        <ele>493</ele>
        <time>2018-06-02T17:48:44+02:00</time>
      </trkpt>
      <trkpt lat="47.74696" lon="6.82643">
        <ele>492</ele>
        <time>2018-06-02T17:48:55+02:00</time>
      </trkpt>
      <trkpt lat="47.74685" lon="6.82636">
        <ele>491</ele>
        <time>2018-06-02T17:49:33+02:00</time>
      </trkpt>
      <trkpt lat="47.74675" lon="6.82632">
        <ele>490</ele>
        <time>2018-06-02T17:49:41+02:00</time>
      </trkpt>
      <trkpt lat="47.74666" lon="6.82642">
        <ele>489</ele>
        <time>2018-06-02T17:49:50+02:00</time>
      </trkpt>
      <trkpt lat="47.74657" lon="6.82653">
        <ele>489</ele>
        <time>2018-06-02T17:50:01+02:00</time>
      </trkpt>
      <trkpt lat="47.7465" lon="6.82663">
        <ele>488</ele>
        <time>2018-06-02T17:50:07+02:00</time>
      </trkpt>
      <trkpt lat="47.74643" lon="6.82672">
        <ele>488</ele>
        <time>2018-06-02T17:50:15+02:00</time>
      </trkpt>
      <trkpt lat="47.74635" lon="6.82683">
        <ele>488</ele>
        <time>2018-06-02T17:50:23+02:00</time>
      </trkpt>
      <trkpt lat="47.74629" lon="6.82693">
        <ele>488</ele>
        <time>2018-06-02T17:50:30+02:00</time>
      </trkpt>
      <trkpt lat="47.74621" lon="6.82701">
        <ele>487</ele>
        <time>2018-06-02T17:50:39+02:00</time>
      </trkpt>
      <trkpt lat="47.74611" lon="6.82704">
        <ele>487</ele>
        <time>2018-06-02T17:50:50+02:00</time>
      </trkpt>
      <trkpt lat="47.74593" lon="6.82708">
        <ele>486</ele>
        <time>2018-06-02T17:51:59+02:00</time>
      </trkpt>
      <trkpt lat="47.74584" lon="6.82712">
        <ele>485</ele>
        <time>2018-06-02T17:52:08+02:00</time>
      </trkpt>
      <trkpt lat="47.74573" lon="6.82713">
        <ele>485</ele>
        <time>2018-06-02T17:52:17+02:00</time>
      </trkpt>
      <trkpt lat="47.74562" lon="6.82719">
        <ele>485</ele>
        <time>2018-06-02T17:52:25+02:00</time>
      </trkpt>
      <trkpt lat="47.7454" lon="6.82726">
        <ele>484</ele>
        <time>2018-06-02T17:52:44+02:00</time>
      </trkpt>
      <trkpt lat="47.74521" lon="6.82733">
        <ele>484</ele>
        <time>2018-06-02T17:53:01+02:00</time>
      </trkpt>
      <trkpt lat="47.74512" lon="6.82738">
        <ele>484</ele>
        <time>2018-06-02T17:53:09+02:00</time>
      </trkpt>
      <trkpt lat="47.74501" lon="6.82742">
        <ele>484</ele>
        <time>2018-06-02T17:53:17+02:00</time>
      </trkpt>
      <trkpt lat="47.74462" lon="6.82754">
        <ele>483</ele>
        <time>2018-06-02T17:53:45+02:00</time>
      </trkpt>
      <trkpt lat="47.74439" lon="6.82762">
        <ele>482</ele>
        <time>2018-06-02T17:54:28+02:00</time>
      </trkpt>
      <trkpt lat="47.74418" lon="6.82769">
        <ele>482</ele>
        <time>2018-06-02T17:54:40+02:00</time>
      </trkpt>
      <trkpt lat="47.74383" lon="6.82782">
        <ele>481</ele>
        <time>2018-06-02T17:55:12+02:00</time>
      </trkpt>
      <trkpt lat="47.74355" lon="6.82785">
        <ele>480</ele>
        <time>2018-06-02T17:55:37+02:00</time>
      </trkpt>
      <trkpt lat="47.74328" lon="6.8279">
        <ele>479</ele>
        <time>2018-06-02T17:55:53+02:00</time>
      </trkpt>
      <trkpt lat="47.74304" lon="6.82798">
        <ele>478</ele>
        <time>2018-06-02T17:56:20+02:00</time>
      </trkpt>
      <trkpt lat="47.74299" lon="6.82809">
        <ele>477</ele>
        <time>2018-06-02T17:56:27+02:00</time>
      </trkpt>
      <trkpt lat="47.74287" lon="6.82818">
        <ele>477</ele>
        <time>2018-06-02T17:56:43+02:00</time>
      </trkpt>
      <trkpt lat="47.74274" lon="6.82828">
        <ele>476</ele>
        <time>2018-06-02T17:56:54+02:00</time>
      </trkpt>
      <trkpt lat="47.74264" lon="6.82825">
        <ele>476</ele>
        <time>2018-06-02T17:57:02+02:00</time>
      </trkpt>
      <trkpt lat="47.74252" lon="6.82806">
        <ele>474</ele>
        <time>2018-06-02T17:57:11+02:00</time>
      </trkpt>
      <trkpt lat="47.74242" lon="6.82797">
        <ele>474</ele>
        <time>2018-06-02T17:57:28+02:00</time>
      </trkpt>
      <trkpt lat="47.74226" lon="6.82806">
        <ele>473</ele>
        <time>2018-06-02T17:57:54+02:00</time>
      </trkpt>
      <trkpt lat="47.74216" lon="6.82814">
        <ele>473</ele>
        <time>2018-06-02T18:00:38+02:00</time>
      </trkpt>
      <trkpt lat="47.74205" lon="6.82795">
        <ele>472</ele>
        <time>2018-06-02T18:00:57+02:00</time>
      </trkpt>
      <trkpt lat="47.74195" lon="6.8278">
        <ele>471</ele>
        <time>2018-06-02T18:01:20+02:00</time>
      </trkpt>
      <trkpt lat="47.74189" lon="6.82767">
        <ele>471</ele>
        <time>2018-06-02T18:01:31+02:00</time>
      </trkpt>
      <trkpt lat="47.74174" lon="6.82742">
        <ele>470</ele>
        <time>2018-06-02T18:01:40+02:00</time>
      </trkpt>
      <trkpt lat="47.74166" lon="6.82741">
        <ele>470</ele>
        <time>2018-06-02T18:01:52+02:00</time>
      </trkpt>
      <trkpt lat="47.74151" lon="6.8275">
        <ele>470</ele>
        <time>2018-06-02T18:08:07+02:00</time>
      </trkpt>
    </trkseg>
  </trk>
</gpx>